sensor_id;sensor_type;location;lat;lon;timestamp;P1;durP1;ratioP1;P2;durP2;ratioP2
36379;SDS011;22411;53.016;18.632;2022-12-18T00:01:48;65.30;;;30.90;;
36379;SDS011;22411;53.016;18.632;2022-12-18T00:04:22;64.80;;;29.60;;
36379;SDS011;22411;53.016;18.632;2022-12-18T00:06:49;67.53;;;29.60;;
36379;SDS011;22411;53.016;18.632;2022-12-18T00:09:15;65.33;;;29.27;;
36379;SDS011;22411;53.016;18.632;2022-12-18T00:11:42;63.97;;;30.03;;
36379;SDS011;22411;53.016;18.632;2022-12-18T00:14:10;64.53;;;30.30;;
36379;SDS011;22411;53.016;18.632;2022-12-18T00:16:37;77.13;;;36.07;;
36379;SDS011;22411;53.016;18.632;2022-12-18T00:19:04;76.97;;;36.80;;
36379;SDS011;22411;53.016;18.632;2022-12-18T00:21:32;70.70;;;35.00;;
36379;SDS011;22411;53.016;18.632;2022-12-18T00:23:58;75.20;;;36.40;;
36379;SDS011;22411;53.016;18.632;2022-12-18T00:26:26;73.23;;;32.77;;
36379;SDS011;22411;53.016;18.632;2022-12-18T00:29:02;68.43;;;32.40;;
36379;SDS011;22411;53.016;18.632;2022-12-18T00:31:32;66.33;;;30.97;;
36379;SDS011;22411;53.016;18.632;2022-12-18T00:33:58;64.37;;;32.67;;
36379;SDS011;22411;53.016;18.632;2022-12-18T00:36:28;68.83;;;30.20;;
36379;SDS011;22411;53.016;18.632;2022-12-18T00:38:57;63.13;;;29.17;;
36379;SDS011;22411;53.016;18.632;2022-12-18T00:41:24;65.17;;;32.03;;
36379;SDS011;22411;53.016;18.632;2022-12-18T00:44:10;70.03;;;32.03;;
36379;SDS011;22411;53.016;18.632;2022-12-18T00:46:40;74.20;;;34.37;;
36379;SDS011;22411;53.016;18.632;2022-12-18T00:49:06;66.93;;;32.80;;
36379;SDS011;22411;53.016;18.632;2022-12-18T00:51:33;63.93;;;32.00;;
36379;SDS011;22411;53.016;18.632;2022-12-18T00:53:58;62.87;;;30.50;;
36379;SDS011;22411;53.016;18.632;2022-12-18T00:56:25;65.23;;;32.07;;
36379;SDS011;22411;53.016;18.632;2022-12-18T00:58:51;62.47;;;30.33;;
36379;SDS011;22411;53.016;18.632;2022-12-18T01:01:17;75.53;;;34.17;;
36379;SDS011;22411;53.016;18.632;2022-12-18T01:03:43;76.13;;;30.63;;
36379;SDS011;22411;53.016;18.632;2022-12-18T01:06:13;73.73;;;32.40;;
36379;SDS011;22411;53.016;18.632;2022-12-18T01:08:39;65.30;;;30.80;;
36379;SDS011;22411;53.016;18.632;2022-12-18T01:11:24;66.47;;;29.23;;
36379;SDS011;22411;53.016;18.632;2022-12-18T01:13:51;60.20;;;30.37;;
36379;SDS011;22411;53.016;18.632;2022-12-18T01:16:18;57.87;;;27.73;;
36379;SDS011;22411;53.016;18.632;2022-12-18T01:18:44;61.60;;;28.07;;
36379;SDS011;22411;53.016;18.632;2022-12-18T01:21:12;57.73;;;28.50;;
36379;SDS011;22411;53.016;18.632;2022-12-18T01:23:39;66.33;;;30.07;;
36379;SDS011;22411;53.016;18.632;2022-12-18T01:26:13;63.43;;;27.17;;
36379;SDS011;22411;53.016;18.632;2022-12-18T01:28:41;60.60;;;28.03;;
36379;SDS011;22411;53.016;18.632;2022-12-18T01:31:13;59.27;;;27.20;;
36379;SDS011;22411;53.016;18.632;2022-12-18T01:33:42;59.30;;;27.53;;
36379;SDS011;22411;53.016;18.632;2022-12-18T01:36:14;58.20;;;27.13;;
36379;SDS011;22411;53.016;18.632;2022-12-18T01:38:41;59.33;;;28.87;;
36379;SDS011;22411;53.016;18.632;2022-12-18T01:41:08;57.93;;;27.17;;
36379;SDS011;22411;53.016;18.632;2022-12-18T01:46:19;51.70;;;24.40;;
36379;SDS011;22411;53.016;18.632;2022-12-18T01:48:47;52.97;;;25.33;;
36379;SDS011;22411;53.016;18.632;2022-12-18T01:51:18;53.27;;;24.30;;
36379;SDS011;22411;53.016;18.632;2022-12-18T01:53:44;55.30;;;27.50;;
36379;SDS011;22411;53.016;18.632;2022-12-18T01:56:13;48.97;;;24.10;;
36379;SDS011;22411;53.016;18.632;2022-12-18T01:58:54;49.10;;;22.77;;
36379;SDS011;22411;53.016;18.632;2022-12-18T02:01:28;50.40;;;23.13;;
36379;SDS011;22411;53.016;18.632;2022-12-18T02:03:55;59.23;;;26.70;;
36379;SDS011;22411;53.016;18.632;2022-12-18T02:06:41;53.17;;;22.80;;
36379;SDS011;22411;53.016;18.632;2022-12-18T02:09:51;46.53;;;22.50;;
36379;SDS011;22411;53.016;18.632;2022-12-18T02:12:21;61.83;;;25.93;;
36379;SDS011;22411;53.016;18.632;2022-12-18T02:17:46;58.70;;;26.77;;
36379;SDS011;22411;53.016;18.632;2022-12-18T02:20:20;56.67;;;23.23;;
36379;SDS011;22411;53.016;18.632;2022-12-18T02:22:59;52.27;;;23.50;;
36379;SDS011;22411;53.016;18.632;2022-12-18T02:28:36;53.50;;;22.57;;
36379;SDS011;22411;53.016;18.632;2022-12-18T02:31:13;50.63;;;22.40;;
36379;SDS011;22411;53.016;18.632;2022-12-18T02:33:51;56.90;;;25.50;;
36379;SDS011;22411;53.016;18.632;2022-12-18T02:36:23;54.53;;;26.00;;
36379;SDS011;22411;53.016;18.632;2022-12-18T02:38:50;49.67;;;24.23;;
36379;SDS011;22411;53.016;18.632;2022-12-18T02:41:19;50.93;;;22.93;;
36379;SDS011;22411;53.016;18.632;2022-12-18T02:43:49;46.57;;;22.77;;
36379;SDS011;22411;53.016;18.632;2022-12-18T02:46:28;57.63;;;25.13;;
36379;SDS011;22411;53.016;18.632;2022-12-18T02:49:21;59.90;;;27.43;;
36379;SDS011;22411;53.016;18.632;2022-12-18T02:52:17;57.23;;;23.83;;
36379;SDS011;22411;53.016;18.632;2022-12-18T02:55:12;52.00;;;24.77;;
36379;SDS011;22411;53.016;18.632;2022-12-18T03:00:19;54.93;;;22.27;;
36379;SDS011;22411;53.016;18.632;2022-12-18T03:02:53;50.63;;;23.07;;
36379;SDS011;22411;53.016;18.632;2022-12-18T03:05:38;52.92;;;26.58;;
36379;SDS011;22411;53.016;18.632;2022-12-18T03:08:16;52.47;;;23.60;;
36379;SDS011;22411;53.016;18.632;2022-12-18T03:10:49;47.83;;;22.50;;
36379;SDS011;22411;53.016;18.632;2022-12-18T03:13:28;50.50;;;24.47;;
36379;SDS011;22411;53.016;18.632;2022-12-18T03:16:02;49.60;;;22.42;;
36379;SDS011;22411;53.016;18.632;2022-12-18T03:18:42;65.27;;;27.87;;
36379;SDS011;22411;53.016;18.632;2022-12-18T03:21:22;53.83;;;22.70;;
36379;SDS011;22411;53.016;18.632;2022-12-18T03:23:54;58.87;;;22.73;;
36379;SDS011;22411;53.016;18.632;2022-12-18T03:26:23;55.20;;;25.63;;
36379;SDS011;22411;53.016;18.632;2022-12-18T03:28:59;44.30;;;21.42;;
36379;SDS011;22411;53.016;18.632;2022-12-18T03:31:32;49.37;;;22.33;;
36379;SDS011;22411;53.016;18.632;2022-12-18T03:34:01;49.30;;;24.57;;
36379;SDS011;22411;53.016;18.632;2022-12-18T03:36:31;51.07;;;23.17;;
36379;SDS011;22411;53.016;18.632;2022-12-18T03:38:57;51.60;;;22.47;;
36379;SDS011;22411;53.016;18.632;2022-12-18T03:41:43;46.60;;;22.30;;
36379;SDS011;22411;53.016;18.632;2022-12-18T03:44:26;50.70;;;21.33;;
36379;SDS011;22411;53.016;18.632;2022-12-18T03:47:11;47.30;;;22.38;;
36379;SDS011;22411;53.016;18.632;2022-12-18T03:54:54;51.60;;;22.33;;
36379;SDS011;22411;53.016;18.632;2022-12-18T03:57:22;49.70;;;23.03;;
36379;SDS011;22411;53.016;18.632;2022-12-18T03:59:54;45.63;;;22.17;;
36379;SDS011;22411;53.016;18.632;2022-12-18T04:02:25;46.93;;;21.83;;
36379;SDS011;22411;53.016;18.632;2022-12-18T04:04:52;48.20;;;21.90;;
36379;SDS011;22411;53.016;18.632;2022-12-18T04:07:22;52.00;;;22.97;;
36379;SDS011;22411;53.016;18.632;2022-12-18T04:09:49;57.63;;;24.53;;
36379;SDS011;22411;53.016;18.632;2022-12-18T04:12:19;56.87;;;22.23;;
36379;SDS011;22411;53.016;18.632;2022-12-18T04:14:45;49.70;;;22.23;;
36379;SDS011;22411;53.016;18.632;2022-12-18T04:17:11;44.57;;;21.87;;
36379;SDS011;22411;53.016;18.632;2022-12-18T04:19:37;48.20;;;22.50;;
36379;SDS011;22411;53.016;18.632;2022-12-18T04:22:03;49.57;;;23.23;;
36379;SDS011;22411;53.016;18.632;2022-12-18T04:24:28;48.63;;;20.87;;
36379;SDS011;22411;53.016;18.632;2022-12-18T04:26:55;50.43;;;22.47;;
36379;SDS011;22411;53.016;18.632;2022-12-18T04:29:20;45.73;;;21.73;;
36379;SDS011;22411;53.016;18.632;2022-12-18T04:31:47;46.40;;;22.53;;
36379;SDS011;22411;53.016;18.632;2022-12-18T04:34:12;48.47;;;23.50;;
36379;SDS011;22411;53.016;18.632;2022-12-18T04:36:39;50.63;;;21.83;;
36379;SDS011;22411;53.016;18.632;2022-12-18T04:39:04;51.87;;;24.70;;
36379;SDS011;22411;53.016;18.632;2022-12-18T04:41:30;49.33;;;25.50;;
36379;SDS011;22411;53.016;18.632;2022-12-18T04:43:56;43.10;;;21.13;;
36379;SDS011;22411;53.016;18.632;2022-12-18T04:46:22;44.57;;;21.17;;
36379;SDS011;22411;53.016;18.632;2022-12-18T04:48:48;49.87;;;23.30;;
36379;SDS011;22411;53.016;18.632;2022-12-18T04:51:14;47.20;;;21.97;;
36379;SDS011;22411;53.016;18.632;2022-12-18T04:53:40;41.57;;;22.37;;
36379;SDS011;22411;53.016;18.632;2022-12-18T04:56:07;43.30;;;22.03;;
36379;SDS011;22411;53.016;18.632;2022-12-18T04:58:35;48.10;;;23.40;;
36379;SDS011;22411;53.016;18.632;2022-12-18T05:01:03;53.17;;;23.30;;
36379;SDS011;22411;53.016;18.632;2022-12-18T05:03:29;45.93;;;23.00;;
36379;SDS011;22411;53.016;18.632;2022-12-18T05:05:55;47.13;;;23.60;;
36379;SDS011;22411;53.016;18.632;2022-12-18T05:08:21;45.90;;;21.93;;
36379;SDS011;22411;53.016;18.632;2022-12-18T05:10:47;53.97;;;24.53;;
36379;SDS011;22411;53.016;18.632;2022-12-18T05:13:13;45.23;;;21.93;;
36379;SDS011;22411;53.016;18.632;2022-12-18T05:15:39;47.60;;;24.23;;
36379;SDS011;22411;53.016;18.632;2022-12-18T05:18:05;49.50;;;24.97;;
36379;SDS011;22411;53.016;18.632;2022-12-18T05:20:31;55.23;;;28.07;;
36379;SDS011;22411;53.016;18.632;2022-12-18T05:22:57;48.40;;;23.97;;
36379;SDS011;22411;53.016;18.632;2022-12-18T05:25:23;52.30;;;23.77;;
36379;SDS011;22411;53.016;18.632;2022-12-18T05:27:49;55.30;;;25.47;;
36379;SDS011;22411;53.016;18.632;2022-12-18T05:30:15;49.77;;;25.07;;
36379;SDS011;22411;53.016;18.632;2022-12-18T05:32:41;48.03;;;23.77;;
36379;SDS011;22411;53.016;18.632;2022-12-18T05:35:09;41.70;;;23.57;;
36379;SDS011;22411;53.016;18.632;2022-12-18T05:37:36;46.57;;;23.20;;
36379;SDS011;22411;53.016;18.632;2022-12-18T05:40:02;54.03;;;23.97;;
36379;SDS011;22411;53.016;18.632;2022-12-18T05:42:29;54.57;;;23.10;;
36379;SDS011;22411;53.016;18.632;2022-12-18T05:44:56;45.27;;;20.93;;
36379;SDS011;22411;53.016;18.632;2022-12-18T05:47:22;43.77;;;22.27;;
36379;SDS011;22411;53.016;18.632;2022-12-18T05:49:48;45.93;;;22.60;;
36379;SDS011;22411;53.016;18.632;2022-12-18T05:52:13;47.90;;;23.33;;
36379;SDS011;22411;53.016;18.632;2022-12-18T05:54:39;54.33;;;28.37;;
36379;SDS011;22411;53.016;18.632;2022-12-18T05:57:05;53.07;;;25.50;;
36379;SDS011;22411;53.016;18.632;2022-12-18T05:59:31;45.60;;;22.83;;
36379;SDS011;22411;53.016;18.632;2022-12-18T06:01:57;47.57;;;23.77;;
36379;SDS011;22411;53.016;18.632;2022-12-18T06:04:23;51.97;;;26.63;;
36379;SDS011;22411;53.016;18.632;2022-12-18T06:06:49;53.80;;;25.17;;
36379;SDS011;22411;53.016;18.632;2022-12-18T06:09:15;49.80;;;24.07;;
36379;SDS011;22411;53.016;18.632;2022-12-18T06:11:41;50.80;;;23.30;;
36379;SDS011;22411;53.016;18.632;2022-12-18T06:14:08;49.37;;;25.07;;
36379;SDS011;22411;53.016;18.632;2022-12-18T06:16:35;51.13;;;25.10;;
36379;SDS011;22411;53.016;18.632;2022-12-18T06:19:02;59.00;;;24.93;;
36379;SDS011;22411;53.016;18.632;2022-12-18T06:21:29;54.17;;;26.37;;
36379;SDS011;22411;53.016;18.632;2022-12-18T06:23:56;49.80;;;23.40;;
36379;SDS011;22411;53.016;18.632;2022-12-18T06:26:22;52.40;;;26.57;;
36379;SDS011;22411;53.016;18.632;2022-12-18T06:28:49;53.53;;;25.73;;
36379;SDS011;22411;53.016;18.632;2022-12-18T06:31:15;54.30;;;25.13;;
36379;SDS011;22411;53.016;18.632;2022-12-18T06:33:41;58.37;;;25.97;;
36379;SDS011;22411;53.016;18.632;2022-12-18T06:36:08;53.10;;;25.90;;
36379;SDS011;22411;53.016;18.632;2022-12-18T06:38:37;50.57;;;25.97;;
36379;SDS011;22411;53.016;18.632;2022-12-18T06:41:08;55.97;;;25.97;;
36379;SDS011;22411;53.016;18.632;2022-12-18T06:43:35;53.45;;;25.65;;
36379;SDS011;22411;53.016;18.632;2022-12-18T06:46:01;51.70;;;23.50;;
36379;SDS011;22411;53.016;18.632;2022-12-18T06:48:29;49.63;;;24.30;;
36379;SDS011;22411;53.016;18.632;2022-12-18T06:50:55;48.40;;;23.97;;
36379;SDS011;22411;53.016;18.632;2022-12-18T06:53:21;53.70;;;25.37;;
36379;SDS011;22411;53.016;18.632;2022-12-18T06:55:47;52.23;;;24.10;;
36379;SDS011;22411;53.016;18.632;2022-12-18T06:58:14;51.37;;;24.10;;
36379;SDS011;22411;53.016;18.632;2022-12-18T07:00:40;53.67;;;26.07;;
36379;SDS011;22411;53.016;18.632;2022-12-18T07:03:06;62.10;;;29.87;;
36379;SDS011;22411;53.016;18.632;2022-12-18T07:05:32;59.50;;;28.03;;
36379;SDS011;22411;53.016;18.632;2022-12-18T07:07:58;66.30;;;29.27;;
36379;SDS011;22411;53.016;18.632;2022-12-18T07:10:24;61.77;;;27.07;;
36379;SDS011;22411;53.016;18.632;2022-12-18T07:12:51;59.47;;;26.83;;
36379;SDS011;22411;53.016;18.632;2022-12-18T07:15:17;55.07;;;26.50;;
36379;SDS011;22411;53.016;18.632;2022-12-18T07:17:43;56.33;;;27.17;;
36379;SDS011;22411;53.016;18.632;2022-12-18T07:20:09;62.37;;;27.70;;
36379;SDS011;22411;53.016;18.632;2022-12-18T07:22:35;67.80;;;29.63;;
36379;SDS011;22411;53.016;18.632;2022-12-18T07:25:01;62.53;;;28.73;;
36379;SDS011;22411;53.016;18.632;2022-12-18T07:27:27;60.60;;;28.20;;
36379;SDS011;22411;53.016;18.632;2022-12-18T07:29:53;58.67;;;30.83;;
36379;SDS011;22411;53.016;18.632;2022-12-18T07:32:20;67.50;;;33.30;;
36379;SDS011;22411;53.016;18.632;2022-12-18T07:34:46;56.20;;;29.10;;
36379;SDS011;22411;53.016;18.632;2022-12-18T07:37:12;55.80;;;27.57;;
36379;SDS011;22411;53.016;18.632;2022-12-18T07:39:38;68.70;;;28.20;;
36379;SDS011;22411;53.016;18.632;2022-12-18T07:42:04;67.33;;;30.33;;
36379;SDS011;22411;53.016;18.632;2022-12-18T07:44:48;68.33;;;29.73;;
36379;SDS011;22411;53.016;18.632;2022-12-18T07:47:15;68.77;;;28.47;;
36379;SDS011;22411;53.016;18.632;2022-12-18T07:49:40;56.93;;;26.70;;
36379;SDS011;22411;53.016;18.632;2022-12-18T07:52:06;72.10;;;30.67;;
36379;SDS011;22411;53.016;18.632;2022-12-18T07:54:33;60.60;;;29.80;;
36379;SDS011;22411;53.016;18.632;2022-12-18T07:56:59;56.97;;;26.87;;
36379;SDS011;22411;53.016;18.632;2022-12-18T07:59:25;71.23;;;30.60;;
36379;SDS011;22411;53.016;18.632;2022-12-18T08:01:51;72.97;;;30.17;;
36379;SDS011;22411;53.016;18.632;2022-12-18T08:04:17;67.97;;;28.37;;
36379;SDS011;22411;53.016;18.632;2022-12-18T08:06:43;69.70;;;31.43;;
36379;SDS011;22411;53.016;18.632;2022-12-18T08:09:09;67.47;;;29.20;;
36379;SDS011;22411;53.016;18.632;2022-12-18T08:11:36;69.03;;;37.97;;
36379;SDS011;22411;53.016;18.632;2022-12-18T08:14:02;62.77;;;26.80;;
36379;SDS011;22411;53.016;18.632;2022-12-18T08:16:29;71.03;;;32.57;;
36379;SDS011;22411;53.016;18.632;2022-12-18T08:18:55;68.23;;;30.10;;
36379;SDS011;22411;53.016;18.632;2022-12-18T08:21:25;61.60;;;29.43;;
36379;SDS011;22411;53.016;18.632;2022-12-18T08:23:54;75.63;;;28.90;;
36379;SDS011;22411;53.016;18.632;2022-12-18T08:26:23;66.70;;;28.83;;
36379;SDS011;22411;53.016;18.632;2022-12-18T08:28:50;65.93;;;29.73;;
36379;SDS011;22411;53.016;18.632;2022-12-18T08:31:18;62.17;;;27.33;;
36379;SDS011;22411;53.016;18.632;2022-12-18T08:33:44;67.00;;;31.67;;
36379;SDS011;22411;53.016;18.632;2022-12-18T08:36:13;66.30;;;27.33;;
36379;SDS011;22411;53.016;18.632;2022-12-18T08:38:38;71.73;;;29.80;;
36379;SDS011;22411;53.016;18.632;2022-12-18T08:41:06;68.17;;;29.57;;
36379;SDS011;22411;53.016;18.632;2022-12-18T08:43:35;65.40;;;28.97;;
36379;SDS011;22411;53.016;18.632;2022-12-18T08:46:21;67.17;;;30.30;;
36379;SDS011;22411;53.016;18.632;2022-12-18T08:48:55;53.20;;;24.57;;
36379;SDS011;22411;53.016;18.632;2022-12-18T08:51:22;60.67;;;26.63;;
36379;SDS011;22411;53.016;18.632;2022-12-18T08:53:48;66.50;;;29.83;;
36379;SDS011;22411;53.016;18.632;2022-12-18T08:56:18;68.60;;;30.83;;
36379;SDS011;22411;53.016;18.632;2022-12-18T08:58:45;60.90;;;28.07;;
36379;SDS011;22411;53.016;18.632;2022-12-18T09:01:11;63.03;;;26.63;;
36379;SDS011;22411;53.016;18.632;2022-12-18T09:03:40;68.50;;;29.17;;
36379;SDS011;22411;53.016;18.632;2022-12-18T09:06:13;64.07;;;28.20;;
36379;SDS011;22411;53.016;18.632;2022-12-18T09:08:41;74.55;;;29.80;;
36379;SDS011;22411;53.016;18.632;2022-12-18T09:11:13;68.97;;;29.27;;
36379;SDS011;22411;53.016;18.632;2022-12-18T09:13:50;67.18;;;28.00;;
36379;SDS011;22411;53.016;18.632;2022-12-18T09:16:20;79.85;;;32.10;;
36379;SDS011;22411;53.016;18.632;2022-12-18T09:18:51;71.83;;;28.93;;
36379;SDS011;22411;53.016;18.632;2022-12-18T09:21:27;116.23;;;61.93;;
36379;SDS011;22411;53.016;18.632;2022-12-18T09:23:55;82.43;;;34.87;;
36379;SDS011;22411;53.016;18.632;2022-12-18T09:26:23;76.17;;;35.33;;
36379;SDS011;22411;53.016;18.632;2022-12-18T09:28:54;89.33;;;39.33;;
36379;SDS011;22411;53.016;18.632;2022-12-18T09:31:28;77.00;;;32.90;;
36379;SDS011;22411;53.016;18.632;2022-12-18T09:33:55;75.87;;;31.43;;
36379;SDS011;22411;53.016;18.632;2022-12-18T09:36:26;72.17;;;33.43;;
36379;SDS011;22411;53.016;18.632;2022-12-18T09:38:52;68.83;;;28.43;;
36379;SDS011;22411;53.016;18.632;2022-12-18T09:44:05;85.33;;;48.43;;
36379;SDS011;22411;53.016;18.632;2022-12-18T09:46:56;64.20;;;27.08;;
36379;SDS011;22411;53.016;18.632;2022-12-18T09:49:29;56.53;;;26.37;;
36379;SDS011;22411;53.016;18.632;2022-12-18T09:52:04;55.25;;;24.35;;
36379;SDS011;22411;53.016;18.632;2022-12-18T09:54:39;51.20;;;22.33;;
36379;SDS011;22411;53.016;18.632;2022-12-18T09:57:28;51.97;;;21.07;;
36379;SDS011;22411;53.016;18.632;2022-12-18T09:59:58;48.23;;;22.43;;
36379;SDS011;22411;53.016;18.632;2022-12-18T10:02:30;62.37;;;30.90;;
36379;SDS011;22411;53.016;18.632;2022-12-18T10:05:07;55.60;;;26.63;;
36379;SDS011;22411;53.016;18.632;2022-12-18T10:21:13;96.03;;;47.77;;
36379;SDS011;22411;53.016;18.632;2022-12-18T10:23:54;95.73;;;45.80;;
36379;SDS011;22411;53.016;18.632;2022-12-18T10:26:41;97.00;;;38.23;;
36379;SDS011;22411;53.016;18.632;2022-12-18T10:29:12;115.88;;;43.28;;
36379;SDS011;22411;53.016;18.632;2022-12-18T10:34:11;100.93;;;41.47;;
36379;SDS011;22411;53.016;18.632;2022-12-18T10:36:41;105.90;;;37.07;;
36379;SDS011;22411;53.016;18.632;2022-12-18T10:39:18;144.10;;;78.50;;
36379;SDS011;22411;53.016;18.632;2022-12-18T10:41:47;114.50;;;44.93;;
36379;SDS011;22411;53.016;18.632;2022-12-18T10:44:21;115.93;;;43.10;;
36379;SDS011;22411;53.016;18.632;2022-12-18T10:46:55;94.63;;;38.60;;
36379;SDS011;22411;53.016;18.632;2022-12-18T10:49:33;114.07;;;41.63;;
36379;SDS011;22411;53.016;18.632;2022-12-18T10:54:57;143.40;;;46.30;;
36379;SDS011;22411;53.016;18.632;2022-12-18T10:57:32;118.97;;;45.60;;
36379;SDS011;22411;53.016;18.632;2022-12-18T11:02:57;124.00;;;45.33;;
36379;SDS011;22411;53.016;18.632;2022-12-18T11:05:32;176.90;;;78.63;;
36379;SDS011;22411;53.016;18.632;2022-12-18T11:08:04;132.67;;;50.10;;
36379;SDS011;22411;53.016;18.632;2022-12-18T11:10:58;140.53;;;55.47;;
36379;SDS011;22411;53.016;18.632;2022-12-18T11:13:26;133.80;;;54.83;;
36379;SDS011;22411;53.016;18.632;2022-12-18T11:15:56;120.60;;;47.13;;
36379;SDS011;22411;53.016;18.632;2022-12-18T11:18:27;139.47;;;58.80;;
36379;SDS011;22411;53.016;18.632;2022-12-18T11:23:51;169.93;;;83.43;;
36379;SDS011;22411;53.016;18.632;2022-12-18T11:26:35;171.30;;;72.90;;
36379;SDS011;22411;53.016;18.632;2022-12-18T11:29:12;128.53;;;56.20;;
36379;SDS011;22411;53.016;18.632;2022-12-18T11:31:49;138.93;;;57.77;;
36379;SDS011;22411;53.016;18.632;2022-12-18T11:34:23;128.23;;;44.90;;
36379;SDS011;22411;53.016;18.632;2022-12-18T11:36:54;127.50;;;46.13;;
36379;SDS011;22411;53.016;18.632;2022-12-18T11:44:50;109.27;;;40.50;;
36379;SDS011;22411;53.016;18.632;2022-12-18T11:47:28;92.70;;;36.53;;
36379;SDS011;22411;53.016;18.632;2022-12-18T11:50:07;95.30;;;38.50;;
36379;SDS011;22411;53.016;18.632;2022-12-18T11:52:40;86.97;;;37.50;;
36379;SDS011;22411;53.016;18.632;2022-12-18T11:55:17;82.97;;;34.10;;
36379;SDS011;22411;53.016;18.632;2022-12-18T12:00:26;91.07;;;36.87;;
36379;SDS011;22411;53.016;18.632;2022-12-18T12:03:00;99.47;;;42.50;;
36379;SDS011;22411;53.016;18.632;2022-12-18T12:17:14;69.03;;;28.98;;
36379;SDS011;22411;53.016;18.632;2022-12-18T12:20:15;68.87;;;27.17;;
36379;SDS011;22411;53.016;18.632;2022-12-18T12:25:31;92.43;;;43.97;;
36379;SDS011;22411;53.016;18.632;2022-12-18T12:30:58;133.97;;;62.30;;
36379;SDS011;22411;53.016;18.632;2022-12-18T12:36:18;86.33;;;38.00;;
36379;SDS011;22411;53.016;18.632;2022-12-18T12:38:46;78.03;;;33.60;;
36379;SDS011;22411;53.016;18.632;2022-12-18T12:41:20;74.07;;;29.00;;
36379;SDS011;22411;53.016;18.632;2022-12-18T12:44:09;74.10;;;28.10;;
36379;SDS011;22411;53.016;18.632;2022-12-18T12:46:43;69.67;;;27.30;;
36379;SDS011;22411;53.016;18.632;2022-12-18T12:49:14;82.73;;;30.80;;
36379;SDS011;22411;53.016;18.632;2022-12-18T12:51:43;85.20;;;33.73;;
36379;SDS011;22411;53.016;18.632;2022-12-18T12:54:15;78.60;;;33.30;;
36379;SDS011;22411;53.016;18.632;2022-12-18T12:56:57;73.27;;;30.47;;
36379;SDS011;22411;53.016;18.632;2022-12-18T13:07:16;79.90;;;35.70;;
36379;SDS011;22411;53.016;18.632;2022-12-18T13:15:36;91.07;;;37.77;;
36379;SDS011;22411;53.016;18.632;2022-12-18T13:20:42;104.50;;;38.00;;
36379;SDS011;22411;53.016;18.632;2022-12-18T13:23:25;109.23;;;39.33;;
36379;SDS011;22411;53.016;18.632;2022-12-18T13:31:13;101.88;;;39.63;;
36379;SDS011;22411;53.016;18.632;2022-12-18T13:33:44;91.60;;;38.40;;
36379;SDS011;22411;53.016;18.632;2022-12-18T13:36:16;75.13;;;27.92;;
36379;SDS011;22411;53.016;18.632;2022-12-18T13:39:09;97.87;;;39.27;;
36379;SDS011;22411;53.016;18.632;2022-12-18T13:41:36;107.70;;;40.13;;
36379;SDS011;22411;53.016;18.632;2022-12-18T13:46:48;110.87;;;41.57;;
36379;SDS011;22411;53.016;18.632;2022-12-18T13:49:26;109.83;;;43.67;;
36379;SDS011;22411;53.016;18.632;2022-12-18T13:52:01;116.93;;;43.73;;
36379;SDS011;22411;53.016;18.632;2022-12-18T13:54:39;107.93;;;38.77;;
36379;SDS011;22411;53.016;18.632;2022-12-18T13:57:50;110.27;;;44.47;;
36379;SDS011;22411;53.016;18.632;2022-12-18T14:02:48;112.67;;;41.77;;
36379;SDS011;22411;53.016;18.632;2022-12-18T14:05:26;107.27;;;42.07;;
36379;SDS011;22411;53.016;18.632;2022-12-18T14:10:32;126.83;;;45.10;;
36379;SDS011;22411;53.016;18.632;2022-12-18T14:12:58;142.60;;;58.33;;
36379;SDS011;22411;53.016;18.632;2022-12-18T14:20:49;99.17;;;41.40;;
36379;SDS011;22411;53.016;18.632;2022-12-18T14:23:26;100.63;;;39.80;;
36379;SDS011;22411;53.016;18.632;2022-12-18T14:26:00;93.80;;;41.43;;
36379;SDS011;22411;53.016;18.632;2022-12-18T14:28:27;81.47;;;34.93;;
36379;SDS011;22411;53.016;18.632;2022-12-18T14:30:54;90.00;;;34.37;;
36379;SDS011;22411;53.016;18.632;2022-12-18T14:33:21;107.73;;;41.70;;
36379;SDS011;22411;53.016;18.632;2022-12-18T14:38:25;93.80;;;37.73;;
36379;SDS011;22411;53.016;18.632;2022-12-18T14:40:52;96.28;;;37.78;;
36379;SDS011;22411;53.016;18.632;2022-12-18T14:43:29;106.57;;;44.07;;
36379;SDS011;22411;53.016;18.632;2022-12-18T14:45:59;92.83;;;40.30;;
36379;SDS011;22411;53.016;18.632;2022-12-18T14:51:00;110.57;;;41.43;;
36379;SDS011;22411;53.016;18.632;2022-12-18T14:56:04;100.20;;;39.67;;
36379;SDS011;22411;53.016;18.632;2022-12-18T14:58:43;116.57;;;45.80;;
36379;SDS011;22411;53.016;18.632;2022-12-18T15:01:17;113.07;;;48.07;;
36379;SDS011;22411;53.016;18.632;2022-12-18T15:03:50;116.17;;;47.37;;
36379;SDS011;22411;53.016;18.632;2022-12-18T15:06:25;114.00;;;46.73;;
36379;SDS011;22411;53.016;18.632;2022-12-18T15:08:52;113.97;;;45.07;;
36379;SDS011;22411;53.016;18.632;2022-12-18T15:11:25;110.63;;;43.80;;
36379;SDS011;22411;53.016;18.632;2022-12-18T15:13:57;120.57;;;42.90;;
36379;SDS011;22411;53.016;18.632;2022-12-18T15:16:25;142.60;;;53.30;;
36379;SDS011;22411;53.016;18.632;2022-12-18T15:18:51;143.60;;;56.13;;
36379;SDS011;22411;53.016;18.632;2022-12-18T15:21:19;136.13;;;52.70;;
36379;SDS011;22411;53.016;18.632;2022-12-18T15:26:17;102.72;;;42.45;;
36379;SDS011;22411;53.016;18.632;2022-12-18T15:33:42;87.57;;;34.27;;
36379;SDS011;22411;53.016;18.632;2022-12-18T15:36:12;93.78;;;35.38;;
36379;SDS011;22411;53.016;18.632;2022-12-18T15:38:39;82.33;;;34.17;;
36379;SDS011;22411;53.016;18.632;2022-12-18T15:41:16;87.37;;;29.90;;
36379;SDS011;22411;53.016;18.632;2022-12-18T15:43:45;91.67;;;36.20;;
36379;SDS011;22411;53.016;18.632;2022-12-18T15:46:14;98.70;;;34.27;;
36379;SDS011;22411;53.016;18.632;2022-12-18T15:48:42;100.57;;;39.43;;
36379;SDS011;22411;53.016;18.632;2022-12-18T15:51:20;98.53;;;36.17;;
36379;SDS011;22411;53.016;18.632;2022-12-18T15:54:01;86.82;;;33.90;;
36379;SDS011;22411;53.016;18.632;2022-12-18T15:56:30;82.20;;;32.20;;
36379;SDS011;22411;53.016;18.632;2022-12-18T15:59:15;88.90;;;33.43;;
36379;SDS011;22411;53.016;18.632;2022-12-18T16:01:45;95.43;;;37.13;;
36379;SDS011;22411;53.016;18.632;2022-12-18T16:04:13;115.53;;;48.27;;
36379;SDS011;22411;53.016;18.632;2022-12-18T16:06:41;122.17;;;47.70;;
36379;SDS011;22411;53.016;18.632;2022-12-18T16:09:07;105.33;;;43.77;;
36379;SDS011;22411;53.016;18.632;2022-12-18T16:11:35;115.93;;;44.73;;
36379;SDS011;22411;53.016;18.632;2022-12-18T16:14:12;130.87;;;43.23;;
36379;SDS011;22411;53.016;18.632;2022-12-18T16:16:50;107.30;;;41.03;;
36379;SDS011;22411;53.016;18.632;2022-12-18T16:19:18;226.03;;;94.47;;
36379;SDS011;22411;53.016;18.632;2022-12-18T16:21:45;120.77;;;45.33;;
36379;SDS011;22411;53.016;18.632;2022-12-18T16:24:17;115.63;;;44.30;;
36379;SDS011;22411;53.016;18.632;2022-12-18T16:26:48;149.33;;;61.17;;
36379;SDS011;22411;53.016;18.632;2022-12-18T16:29:16;107.43;;;43.97;;